createdAt,value
2023-05-11T00:01:36.515Z,1.38
2023-05-11T00:04:38.244Z,1.40
2023-05-11T00:07:39.883Z,1.50
2023-05-11T00:10:41.420Z,1.40
2023-05-11T00:13:42.896Z,1.42
2023-05-11T00:16:44.461Z,1.30
2023-05-11T00:19:46.375Z,1.25
2023-05-11T00:22:48.026Z,1.20
2023-05-11T00:25:49.535Z,1.00
2023-05-11T00:28:51.123Z,1.20
2023-05-11T00:31:52.666Z,0.98
2023-05-11T00:34:54.958Z,1.23
2023-05-11T00:37:57.019Z,1.10
2023-05-11T00:40:58.568Z,1.00
2023-05-11T00:44:00.216Z,1.08
2023-05-11T00:47:03.006Z,1.20
2023-05-11T00:50:05.668Z,0.90
2023-05-11T00:53:07.333Z,0.98
2023-05-11T00:56:08.989Z,1.13
2023-05-11T00:59:11.378Z,1.98
2023-05-11T01:02:13.044Z,1.20
2023-05-11T01:05:14.785Z,1.35
2023-05-11T01:08:22.090Z,1.10
2023-05-11T01:11:33.842Z,1.13
2023-05-11T01:14:43.955Z,1.25
2023-05-11T01:17:58.034Z,1.20
2023-05-11T01:21:02.695Z,1.00
2023-05-11T01:24:27.484Z,1.05
2023-05-11T01:27:55.163Z,1.10
2023-05-11T01:31:10.224Z,1.33
2023-05-11T01:34:21.637Z,1.40
2023-05-11T13:51:24.215Z,1.10
2023-05-11T13:54:25.999Z,1.00
2023-05-11T13:57:27.553Z,0.90
2023-05-11T14:00:29.060Z,1.10
2023-05-11T14:03:32.006Z,1.02
2023-05-11T14:06:34.660Z,1.00
2023-05-11T14:09:37.088Z,0.90
2023-05-11T14:12:38.944Z,1.10
2023-05-11T14:15:40.798Z,1.13
2023-05-11T14:18:42.371Z,1.20
2023-05-11T14:21:43.941Z,1.20
2023-05-11T14:24:45.401Z,1.05
2023-05-11T14:27:49.195Z,0.88
2023-05-11T14:30:50.892Z,0.95
2023-05-11T14:33:52.426Z,1.00
2023-05-11T14:36:55.085Z,1.00
2023-05-11T14:39:56.613Z,1.20
2023-05-11T14:42:58.183Z,1.00
2023-05-11T14:45:59.813Z,1.10
2023-05-11T14:49:01.297Z,1.30
2023-05-11T14:52:02.922Z,1.02
2023-05-11T14:55:05.133Z,1.08
2023-05-11T14:58:10.115Z,1.17
2023-05-11T15:01:11.666Z,1.02
2023-05-11T15:04:15.493Z,0.90
2023-05-11T15:07:17.063Z,1.08
2023-05-11T15:10:18.516Z,1.00
2023-05-11T15:13:22.183Z,0.90
2023-05-11T15:16:23.983Z,1.08
2023-05-11T15:19:26.225Z,1.02
2023-05-11T15:22:27.769Z,1.10
2023-05-11T15:25:29.249Z,1.08
2023-05-11T15:28:30.826Z,1.20
2023-05-11T15:31:32.780Z,5.18
2023-05-11T15:34:39.486Z,6.63
2023-05-11T15:37:46.469Z,6.72
2023-05-11T15:40:47.934Z,7.00
2023-05-11T15:43:49.430Z,5.00
2023-05-11T15:46:50.891Z,2.33
